Time;durP1;ratioP1;P1;durP2;ratioP2;P2;SDS_P1;SDS_P2;PMS_P1;PMS_P2;Temp;Humidity;BMP_temperature;BMP_pressure;BME280_temperature;BME280_humidity;BME280_pressure;Samples;Min_cycle;Max_cycle;Signal;HPM_P1;HPM_P2
2021/12/03 00:02:25;;;;;;;2.83;2.03;;;;;;;;;;6276171;22;20242;-91
2021/12/03 00:04:52;;;;;;;6.70;2.40;;;;;;;;;;6276105;22;20228;-91
2021/12/03 00:07:20;;;;;;;2.87;2.10;;;;;;;;;;6275239;22;20176;-92
2021/12/03 00:09:47;;;;;;;3.27;1.90;;;;;;;;;;6275544;22;20214;-91
2021/12/03 00:12:16;;;;;;;2.23;1.97;;;;;;;;;;6275985;22;20180;-92
2021/12/03 00:14:43;;;;;;;2.10;1.90;;;;;;;;;;6276114;22;20253;-92
2021/12/03 00:17:10;;;;;;;4.50;2.53;;;;;;;;;;6274551;22;20189;-91
2021/12/03 00:19:38;;;;;;;3.87;2.13;;;;;;;;;;6276116;22;20192;-92
2021/12/03 00:22:05;;;;;;;4.03;2.53;;;;;;;;;;6275600;22;20176;-91
2021/12/03 00:24:33;;;;;;;2.90;2.30;;;;;;;;;;6274825;22;20514;-92
2021/12/03 00:27:01;;;;;;;7.13;2.63;;;;;;;;;;6275403;22;20208;-92
2021/12/03 00:29:29;;;;;;;2.50;2.30;;;;;;;;;;6276301;22;20196;-91
2021/12/03 00:31:57;;;;;;;2.27;2.07;;;;;;;;;;6276021;22;20177;-92
2021/12/03 00:34:26;;;;;;;2.80;2.13;;;;;;;;;;6275702;22;20184;-92
2021/12/03 00:36:54;;;;;;;2.57;1.80;;;;;;;;;;6275389;22;20200;-92
2021/12/03 00:39:22;;;;;;;3.63;2.23;;;;;;;;;;6275767;22;20192;-92
2021/12/03 00:41:55;;;;;;;4.97;2.20;;;;;;;;;;6275240;22;20180;-92
2021/12/03 00:44:24;;;;;;;2.07;1.77;;;;;;;;;;6275854;22;20206;-92
2021/12/03 00:46:53;;;;;;;2.60;2.10;;;;;;;;;;6275849;22;20173;-92
2021/12/03 00:49:20;;;;;;;2.63;2.13;;;;;;;;;;6276014;22;20197;-92
2021/12/03 00:51:48;;;;;;;2.63;2.00;;;;;;;;;;6275288;22;20181;-91
2021/12/03 00:54:15;;;;;;;2.20;1.90;;;;;;;;;;6275725;22;20180;-91
2021/12/03 00:56:43;;;;;;;3.37;2.10;;;;;;;;;;6275097;22;20658;-91
2021/12/03 00:59:10;;;;;;;4.47;1.97;;;;;;;;;;6275808;22;20265;-92
2021/12/03 01:01:38;;;;;;;3.60;2.47;;;;;;;;;;6274925;22;20181;-92
2021/12/03 01:04:07;;;;;;;2.23;1.80;;;;;;;;;;6274112;22;20549;-92
2021/12/03 01:06:35;;;;;;;2.23;2.00;;;;;;;;;;6275053;22;20233;-92
2021/12/03 01:09:02;;;;;;;3.33;2.60;;;;;;;;;;6274973;22;20192;-92
2021/12/03 01:11:29;;;;;;;5.07;2.43;;;;;;;;;;6276312;22;20249;-91
2021/12/03 01:14:00;;;;;;;3.63;2.40;;;;;;;;;;6274177;22;20180;-92
2021/12/03 01:16:27;;;;;;;2.73;2.07;;;;;;;;;;6274965;22;20193;-91
2021/12/03 01:18:55;;;;;;;2.17;1.97;;;;;;;;;;6275272;22;20733;-92
2021/12/03 01:21:24;;;;;;;2.83;1.87;;;;;;;;;;6274526;22;20180;-92
2021/12/03 01:23:52;;;;;;;3.20;2.23;;;;;;;;;;6275431;22;20243;-91
2021/12/03 01:26:20;;;;;;;2.67;2.47;;;;;;;;;;6275160;22;20168;-92
2021/12/03 01:28:47;;;;;;;3.47;2.10;;;;;;;;;;6275425;22;20496;-92
2021/12/03 01:31:16;;;;;;;4.50;2.50;;;;;;;;;;6274862;22;20210;-92
2021/12/03 01:33:43;;;;;;;5.63;2.60;;;;;;;;;;6276369;22;20173;-91
2021/12/03 01:36:11;;;;;;;2.47;1.90;;;;;;;;;;6277255;22;20624;-92
2021/12/03 01:38:40;;;;;;;3.83;2.43;;;;;;;;;;6276229;22;20196;-91
2021/12/03 01:41:07;;;;;;;4.20;2.33;;;;;;;;;;6277432;22;20172;-91
2021/12/03 01:43:35;;;;;;;5.03;3.03;;;;;;;;;;6277729;22;20214;-92
2021/12/03 01:46:03;;;;;;;3.97;2.67;;;;;;;;;;6276549;22;20232;-91
2021/12/03 01:48:31;;;;;;;3.33;2.53;;;;;;;;;;6277475;22;20250;-92
2021/12/03 01:50:58;;;;;;;3.70;2.30;;;;;;;;;;6277363;22;20619;-92
2021/12/03 01:53:26;;;;;;;2.87;2.50;;;;;;;;;;6277635;22;20831;-92
2021/12/03 01:55:57;;;;;;;3.53;2.93;;;;;;;;;;6276294;22;20234;-92
2021/12/03 01:58:25;;;;;;;4.77;2.30;;;;;;;;;;6279577;22;20211;-91
2021/12/03 02:00:54;;;;;;;4.00;2.70;;;;;;;;;;6278078;22;20248;-91
2021/12/03 02:03:23;;;;;;;2.97;2.53;;;;;;;;;;6277322;22;20177;-92
2021/12/03 02:05:51;;;;;;;5.07;3.10;;;;;;;;;;6277165;22;20188;-91
2021/12/03 02:08:19;;;;;;;4.37;2.90;;;;;;;;;;6276351;22;20274;-91
2021/12/03 02:10:46;;;;;;;6.17;3.00;;;;;;;;;;6277031;22;20176;-91
2021/12/03 02:13:16;;;;;;;3.27;2.80;;;;;;;;;;6277492;22;20581;-91
2021/12/03 02:15:44;;;;;;;3.23;2.10;;;;;;;;;;6276866;22;20182;-91
2021/12/03 02:18:12;;;;;;;3.60;2.53;;;;;;;;;;6276560;22;20196;-91
2021/12/03 02:20:43;;;;;;;3.27;2.70;;;;;;;;;;6277257;22;20634;-91
2021/12/03 02:23:10;;;;;;;4.53;2.80;;;;;;;;;;6277572;22;20234;-91
2021/12/03 02:25:38;;;;;;;3.43;2.67;;;;;;;;;;6276288;22;20634;-91
2021/12/03 02:28:15;;;;;;;4.37;2.77;;;;;;;;;;6276699;22;20192;-91
2021/12/03 02:30:42;;;;;;;7.33;3.03;;;;;;;;;;6277403;22;20179;-91
2021/12/03 02:33:10;;;;;;;5.83;2.90;;;;;;;;;;6277107;22;20181;-91
2021/12/03 02:35:39;;;;;;;3.43;3.13;;;;;;;;;;6276276;22;20184;-92
2021/12/03 02:38:09;;;;;;;4.97;2.50;;;;;;;;;;6276174;22;20880;-91
2021/12/03 02:40:36;;;;;;;4.53;2.80;;;;;;;;;;6277038;22;20176;-91
2021/12/03 02:43:04;;;;;;;4.67;2.60;;;;;;;;;;6277303;22;20489;-91
2021/12/03 02:45:31;;;;;;;4.43;2.70;;;;;;;;;;6275451;22;20180;-91
2021/12/03 02:48:00;;;;;;;5.43;2.73;;;;;;;;;;6276696;22;20238;-92
2021/12/03 02:50:28;;;;;;;5.00;3.10;;;;;;;;;;6277124;22;20544;-92
2021/12/03 02:52:55;;;;;;;4.63;2.70;;;;;;;;;;6277331;22;20181;-91
2021/12/03 02:55:24;;;;;;;3.60;2.87;;;;;;;;;;6275356;22;20180;-91
2021/12/03 02:57:51;;;;;;;2.90;2.57;;;;;;;;;;6276450;22;20196;-90
2021/12/03 03:00:20;;;;;;;4.20;3.07;;;;;;;;;;6276836;22;20557;-91
2021/12/03 03:02:48;;;;;;;4.47;2.83;;;;;;;;;;6276091;22;20179;-91
2021/12/03 03:05:18;;;;;;;4.27;2.87;;;;;;;;;;6275018;22;20176;-90
2021/12/03 03:07:46;;;;;;;4.33;2.93;;;;;;;;;;6275077;22;20176;-91
2021/12/03 03:10:15;;;;;;;3.73;2.77;;;;;;;;;;6276476;22;20180;-91
2021/12/03 03:12:44;;;;;;;4.03;3.00;;;;;;;;;;6276765;22;20187;-91
2021/12/03 03:15:12;;;;;;;4.13;2.73;;;;;;;;;;6276986;22;20230;-91
2021/12/03 03:17:41;;;;;;;3.30;2.77;;;;;;;;;;6275382;22;20556;-91
2021/12/03 03:20:09;;;;;;;4.30;3.00;;;;;;;;;;6276983;22;20181;-92
2021/12/03 03:22:37;;;;;;;2.70;2.50;;;;;;;;;;6276948;22;20176;-92
2021/12/03 03:25:05;;;;;;;3.27;2.90;;;;;;;;;;6275890;22;20234;-91
2021/12/03 03:27:33;;;;;;;2.63;2.30;;;;;;;;;;6275978;22;20173;-91
2021/12/03 03:30:02;;;;;;;3.77;2.97;;;;;;;;;;6276635;22;20196;-92
2021/12/03 03:32:30;;;;;;;3.60;2.93;;;;;;;;;;6276761;22;20204;-91
2021/12/03 03:34:57;;;;;;;3.30;2.47;;;;;;;;;;6276184;22;20219;-91
2021/12/03 03:37:24;;;;;;;3.70;2.80;;;;;;;;;;6276206;22;20195;-92
2021/12/03 03:39:52;;;;;;;4.70;3.10;;;;;;;;;;6276161;22;20205;-91
2021/12/03 03:42:19;;;;;;;3.97;2.63;;;;;;;;;;6276026;22;20211;-91
2021/12/03 03:44:47;;;;;;;3.17;2.60;;;;;;;;;;6275993;22;20180;-92
2021/12/03 03:47:15;;;;;;;4.20;2.63;;;;;;;;;;6276104;22;20591;-92
2021/12/03 03:49:43;;;;;;;5.37;2.90;;;;;;;;;;6276006;22;20197;-91
2021/12/03 03:52:10;;;;;;;5.77;2.90;;;;;;;;;;6276267;22;20176;-92
2021/12/03 03:54:37;;;;;;;3.87;2.60;;;;;;;;;;6276124;22;20176;-92
2021/12/03 03:57:05;;;;;;;3.97;2.87;;;;;;;;;;6276234;22;20188;-92
2021/12/03 03:59:33;;;;;;;3.27;2.80;;;;;;;;;;6274964;22;20200;-91
2021/12/03 04:02:06;;;;;;;3.83;2.93;;;;;;;;;;6275694;22;20713;-92
2021/12/03 04:04:35;;;;;;;6.13;3.13;;;;;;;;;;6275745;22;20183;-91
2021/12/03 04:07:02;;;;;;;3.80;2.90;;;;;;;;;;6276029;22;20176;-92
2021/12/03 04:09:29;;;;;;;5.47;3.60;;;;;;;;;;6275636;22;20196;-92
2021/12/03 04:11:57;;;;;;;3.73;2.87;;;;;;;;;;6276084;22;20746;-92
2021/12/03 04:14:24;;;;;;;3.97;3.10;;;;;;;;;;6275857;22;20176;-91
2021/12/03 04:16:51;;;;;;;3.73;3.10;;;;;;;;;;6276014;22;20550;-92
2021/12/03 04:19:19;;;;;;;4.37;3.57;;;;;;;;;;6275952;22;20671;-92
2021/12/03 04:21:47;;;;;;;7.03;4.27;;;;;;;;;;6276012;22;20230;-92
2021/12/03 04:24:15;;;;;;;4.07;3.40;;;;;;;;;;6275806;22;20176;-92
2021/12/03 04:26:42;;;;;;;4.40;3.13;;;;;;;;;;6275246;22;20254;-92
2021/12/03 04:29:09;;;;;;;2.90;2.60;;;;;;;;;;6275997;22;20197;-91
2021/12/03 04:31:37;;;;;;;4.67;2.90;;;;;;;;;;6275823;22;20191;-92
2021/12/03 04:34:04;;;;;;;4.20;3.40;;;;;;;;;;6275104;22;20183;-93
2021/12/03 04:36:32;;;;;;;4.13;3.00;;;;;;;;;;6275372;22;20180;-92
2021/12/03 04:39:00;;;;;;;4.57;3.60;;;;;;;;;;6275512;22;20200;-92
2021/12/03 04:41:28;;;;;;;5.57;4.97;;;;;;;;;;6275573;22;20180;-92
2021/12/03 04:43:55;;;;;;;5.10;4.47;;;;;;;;;;6275518;22;20283;-91
2021/12/03 04:46:22;;;;;;;7.70;3.97;;;;;;;;;;6275451;22;20188;-92
2021/12/03 04:48:50;;;;;;;6.07;3.67;;;;;;;;;;6275847;22;20192;-92
2021/12/03 04:51:17;;;;;;;3.77;3.17;;;;;;;;;;6276059;22;20176;-92
2021/12/03 04:53:44;;;;;;;5.13;3.03;;;;;;;;;;6275397;22;20237;-91
2021/12/03 04:56:13;;;;;;;3.97;3.27;;;;;;;;;;6275523;22;20184;-91
2021/12/03 04:58:40;;;;;;;4.50;3.40;;;;;;;;;;6275351;22;20648;-92
2021/12/03 05:01:08;;;;;;;4.60;3.27;;;;;;;;;;6274917;22;20184;-92
2021/12/03 05:03:37;;;;;;;4.73;3.53;;;;;;;;;;6275970;22;20173;-92
2021/12/03 05:06:08;;;;;;;4.30;3.63;;;;;;;;;;6274884;22;20180;-92
2021/12/03 05:08:35;;;;;;;4.70;3.60;;;;;;;;;;6274705;22;20217;-92
2021/12/03 05:11:03;;;;;;;8.50;3.67;;;;;;;;;;6275235;22;20185;-92
2021/12/03 05:13:34;;;;;;;4.33;3.43;;;;;;;;;;6275527;22;20176;-93
2021/12/03 05:16:01;;;;;;;3.77;3.10;;;;;;;;;;6275220;22;20180;-92
2021/12/03 05:18:30;;;;;;;7.17;3.60;;;;;;;;;;6275061;22;20540;-92
2021/12/03 05:20:58;;;;;;;4.40;3.43;;;;;;;;;;6275022;22;20177;-92
2021/12/03 05:23:44;;;;;;;5.00;3.60;;;;;;;;;;6274656;22;20242;-92
2021/12/03 05:26:11;;;;;;;5.70;3.90;;;;;;;;;;6275718;22;20510;-92
2021/12/03 05:28:40;;;;;;;8.13;4.30;;;;;;;;;;6275373;22;20196;-91
2021/12/03 05:31:09;;;;;;;4.67;3.70;;;;;;;;;;6275174;22;20566;-92
2021/12/03 05:33:36;;;;;;;4.00;3.07;;;;;;;;;;6275763;22;20622;-92
2021/12/03 05:36:10;;;;;;;6.43;3.80;;;;;;;;;;6275519;22;20255;-92
2021/12/03 05:38:38;;;;;;;3.93;3.53;;;;;;;;;;6275501;22;20196;-92
2021/12/03 05:41:05;;;;;;;4.13;3.50;;;;;;;;;;6274977;22;20514;-92
2021/12/03 05:43:32;;;;;;;5.60;3.50;;;;;;;;;;6274793;22;20238;-91
2021/12/03 05:46:01;;;;;;;6.67;4.03;;;;;;;;;;6275131;22;20549;-92
2021/12/03 05:48:28;;;;;;;5.83;4.27;;;;;;;;;;6275298;22;20242;-91
2021/12/03 05:50:56;;;;;;;6.67;4.27;;;;;;;;;;6274353;22;20704;-92
2021/12/03 05:53:23;;;;;;;5.00;3.73;;;;;;;;;;6275517;22;20176;-93
2021/12/03 05:55:51;;;;;;;6.07;3.73;;;;;;;;;;6275372;22;20191;-90
2021/12/03 05:58:18;;;;;;;5.57;3.97;;;;;;;;;;6275233;22;20206;-92
2021/12/03 06:00:59;;;;;;;3.97;3.57;;;;;;;;;;6273868;22;20676;-92
2021/12/03 06:03:28;;;;;;;5.03;3.60;;;;;;;;;;6275362;22;20188;-92
2021/12/03 06:05:56;;;;;;;7.30;4.13;;;;;;;;;;6275547;22;20177;-91
2021/12/03 06:08:23;;;;;;;5.10;4.20;;;;;;;;;;6274464;22;20200;-93
2021/12/03 06:10:51;;;;;;;6.43;4.57;;;;;;;;;;6274557;22;20636;-92
2021/12/03 06:13:18;;;;;;;4.93;3.90;;;;;;;;;;6275452;22;20180;-92
2021/12/03 06:15:45;;;;;;;4.80;3.67;;;;;;;;;;6275199;22;20181;-93
2021/12/03 06:18:13;;;;;;;4.83;3.67;;;;;;;;;;6274143;22;20789;-92
2021/12/03 06:20:41;;;;;;;6.90;3.63;;;;;;;;;;6276098;22;20693;-91
2021/12/03 06:23:09;;;;;;;5.23;4.20;;;;;;;;;;6277507;22;20180;-93
2021/12/03 06:25:36;;;;;;;5.67;4.13;;;;;;;;;;6276538;22;20501;-93
2021/12/03 06:28:03;;;;;;;5.97;4.13;;;;;;;;;;6276718;22;20198;-92
2021/12/03 06:30:31;;;;;;;5.70;3.53;;;;;;;;;;6277658;22;20177;-93
2021/12/03 06:32:58;;;;;;;4.70;3.63;;;;;;;;;;6276605;22;20235;-92
2021/12/03 06:35:25;;;;;;;6.03;3.43;;;;;;;;;;6283273;22;20559;-92
2021/12/03 06:37:54;;;;;;;5.60;3.83;;;;;;;;;;6276145;22;20192;-92
2021/12/03 06:40:24;;;;;;;5.43;3.90;;;;;;;;;;6279646;22;20181;-91
2021/12/03 06:42:52;;;;;;;6.37;4.80;;;;;;;;;;6282562;22;20179;-92
2021/12/03 06:45:19;;;;;;;5.80;4.10;;;;;;;;;;6276807;22;20686;-92
2021/12/03 06:47:47;;;;;;;5.03;3.70;;;;;;;;;;6277043;22;20169;-92
2021/12/03 06:50:18;;;;;;;5.63;4.60;;;;;;;;;;6276319;22;20230;-92
2021/12/03 06:52:48;;;;;;;6.20;4.30;;;;;;;;;;6276795;22;20238;-92
2021/12/03 06:55:17;;;;;;;6.53;4.30;;;;;;;;;;6277304;22;20184;-92
2021/12/03 06:57:45;;;;;;;7.57;4.37;;;;;;;;;;6276500;22;20227;-93
2021/12/03 07:00:13;;;;;;;4.73;4.10;;;;;;;;;;6277756;22;20674;-92
2021/12/03 07:02:40;;;;;;;6.03;4.40;;;;;;;;;;6276251;22;20182;-92
2021/12/03 07:05:08;;;;;;;7.93;4.90;;;;;;;;;;6276829;22;20177;-92
2021/12/03 07:07:36;;;;;;;9.10;4.93;;;;;;;;;;6277790;22;20173;-92
2021/12/03 07:10:04;;;;;;;6.53;4.33;;;;;;;;;;6275937;22;20200;-93
2021/12/03 07:12:32;;;;;;;5.00;4.27;;;;;;;;;;6276301;22;20188;-93
2021/12/03 07:15:00;;;;;;;5.17;3.80;;;;;;;;;;6277089;22;20180;-92
2021/12/03 07:17:30;;;;;;;5.73;3.77;;;;;;;;;;6275348;22;20774;-92
2021/12/03 07:19:58;;;;;;;5.93;4.40;;;;;;;;;;6276360;22;20188;-92
2021/12/03 07:22:25;;;;;;;8.07;5.17;;;;;;;;;;6276029;22;20176;-93
2021/12/03 07:24:53;;;;;;;6.17;4.60;;;;;;;;;;6275766;22;20177;-91
2021/12/03 07:27:20;;;;;;;7.13;3.93;;;;;;;;;;6276412;22;20173;-92
2021/12/03 07:29:49;;;;;;;7.20;5.07;;;;;;;;;;6276400;22;20571;-92
2021/12/03 07:32:17;;;;;;;8.03;5.10;;;;;;;;;;6275546;22;20198;-93
2021/12/03 07:34:44;;;;;;;9.17;4.90;;;;;;;;;;6275612;22;20518;-93
2021/12/03 07:37:12;;;;;;;6.00;4.10;;;;;;;;;;6275787;22;20211;-93
2021/12/03 07:39:39;;;;;;;7.93;4.93;;;;;;;;;;6276071;22;20196;-92
2021/12/03 07:42:07;;;;;;;7.30;4.40;;;;;;;;;;6274446;22;20184;-92
2021/12/03 07:44:34;;;;;;;5.40;4.43;;;;;;;;;;6276111;22;20176;-93
2021/12/03 07:47:05;;;;;;;7.33;4.93;;;;;;;;;;6278446;22;20183;-92
2021/12/03 07:49:32;;;;;;;6.50;4.73;;;;;;;;;;6278244;22;20193;-92
2021/12/03 07:52:00;;;;;;;6.83;4.83;;;;;;;;;;6275133;22;20173;-92
2021/12/03 07:54:27;;;;;;;6.57;4.80;;;;;;;;;;6276267;22;20177;-93
2021/12/03 07:56:54;;;;;;;5.43;4.20;;;;;;;;;;6274898;22;20715;-93
2021/12/03 07:59:21;;;;;;;6.20;4.27;;;;;;;;;;6276254;22;20262;-93
2021/12/03 08:01:49;;;;;;;4.67;3.83;;;;;;;;;;6274360;22;20183;-93
2021/12/03 08:04:18;;;;;;;6.20;4.17;;;;;;;;;;6276364;22;20184;-92
2021/12/03 08:06:51;;;;;;;5.37;4.23;;;;;;;;;;6276038;22;20184;-93
2021/12/03 08:09:18;;;;;;;4.43;3.83;;;;;;;;;;6274481;22;20247;-92
2021/12/03 08:11:45;;;;;;;5.60;3.90;;;;;;;;;;6275679;22;20180;-92
2021/12/03 08:14:13;;;;;;;6.47;4.50;;;;;;;;;;6276407;22;20222;-93
2021/12/03 08:16:40;;;;;;;5.97;4.50;;;;;;;;;;6274789;22;20567;-91
2021/12/03 08:19:07;;;;;;;6.03;4.30;;;;;;;;;;6275732;22;20196;-92
2021/12/03 08:21:36;;;;;;;7.10;5.27;;;;;;;;;;6275366;22;20176;-92
2021/12/03 08:24:04;;;;;;;4.50;3.87;;;;;;;;;;6275488;22;20727;-91
2021/12/03 08:26:32;;;;;;;6.77;4.50;;;;;;;;;;6274972;22;20181;-92
2021/12/03 08:28:59;;;;;;;4.63;3.87;;;;;;;;;;6275399;22;20208;-92
2021/12/03 08:31:27;;;;;;;7.90;3.90;;;;;;;;;;6275506;22;20623;-92
2021/12/03 08:33:54;;;;;;;6.97;3.73;;;;;;;;;;6275596;22;20199;-91
2021/12/03 08:36:21;;;;;;;5.50;4.60;;;;;;;;;;6275013;22;20612;-92
2021/12/03 08:38:50;;;;;;;4.20;3.80;;;;;;;;;;6275125;22;20192;-91
2021/12/03 08:41:18;;;;;;;3.90;3.50;;;;;;;;;;6275535;22;20252;-92
2021/12/03 08:43:46;;;;;;;5.20;4.33;;;;;;;;;;6274368;22;20211;-92
2021/12/03 08:46:17;;;;;;;4.40;4.00;;;;;;;;;;6275350;22;20181;-93
2021/12/03 08:48:47;;;;;;;4.73;3.63;;;;;;;;;;6276083;22;20216;-92
2021/12/03 08:51:46;;;;;;;4.73;3.40;;;;;;;;;;6274658;22;20176;-92
2021/12/03 08:57:05;;;;;;;4.27;3.87;;;;;;;;;;6243964;22;20204;-91
2021/12/03 08:59:33;;;;;;;3.93;3.47;;;;;;;;;;6247482;22;20204;-91
2021/12/03 09:02:16;;;;;;;3.80;3.33;;;;;;;;;;6275294;22;20181;-92
2021/12/03 09:04:44;;;;;;;5.20;3.67;;;;;;;;;;6275556;22;20165;-92
2021/12/03 09:07:11;;;;;;;4.57;3.60;;;;;;;;;;6274464;22;20177;-91
2021/12/03 09:09:40;;;;;;;4.27;3.43;;;;;;;;;;6274988;22;20738;-92
2021/12/03 09:12:07;;;;;;;6.63;3.43;;;;;;;;;;6274534;22;20176;-91
2021/12/03 09:14:38;;;;;;;5.60;3.60;;;;;;;;;;6275256;22;20184;-92
2021/12/03 09:17:17;;;;;;;4.90;3.30;;;;;;;;;;6274249;22;20231;-91
2021/12/03 09:19:52;;;;;;;3.97;2.93;;;;;;;;;;6274478;22;20196;-91
2021/12/03 09:22:27;;;;;;;3.27;2.63;;;;;;;;;;6275115;22;20606;-91
2021/12/03 09:24:56;;;;;;;3.93;3.03;;;;;;;;;;6275680;22;20192;-92
2021/12/03 09:27:23;;;;;;;3.90;3.40;;;;;;;;;;6275302;22;20173;-92
2021/12/03 09:29:54;;;;;;;3.80;3.10;;;;;;;;;;6274088;22;20196;-91
2021/12/03 09:32:23;;;;;;;3.03;2.53;;;;;;;;;;6275553;22;20600;-91
2021/12/03 09:34:50;;;;;;;3.57;2.70;;;;;;;;;;6275953;22;20176;-92
2021/12/03 09:37:18;;;;;;;3.00;2.53;;;;;;;;;;6274100;22;20244;-91
2021/12/03 09:39:46;;;;;;;3.87;2.40;;;;;;;;;;6275094;22;20953;-92
2021/12/03 09:42:18;;;;;;;2.60;2.40;;;;;;;;;;6275179;22;20184;-91
2021/12/03 09:44:45;;;;;;;2.63;2.43;;;;;;;;;;6275019;22;20663;-91
2021/12/03 09:47:13;;;;;;;3.73;2.60;;;;;;;;;;6275440;22;20252;-91
2021/12/03 09:49:41;;;;;;;3.97;2.60;;;;;;;;;;6275331;22;20247;-92
2021/12/03 09:52:25;;;;;;;2.93;2.63;;;;;;;;;;6274446;22;20183;-92
2021/12/03 09:54:56;;;;;;;3.80;2.50;;;;;;;;;;6276034;22;20738;-92
2021/12/03 09:57:32;;;;;;;3.57;2.90;;;;;;;;;;6277418;22;20608;-91
2021/12/03 10:00:17;;;;;;;2.97;2.67;;;;;;;;;;6277269;22;20543;-91
2021/12/03 10:03:05;;;;;;;4.73;2.93;;;;;;;;;;6276938;22;20176;-91
2021/12/03 10:13:43;;;;;;;2.60;2.40;;;;;;;;;;6250956;22;20169;-91
2021/12/03 10:16:19;;;;;;;2.93;2.50;;;;;;;;;;6277403;22;20199;-92
2021/12/03 10:18:49;;;;;;;4.07;2.73;;;;;;;;;;6277319;22;20200;-91
2021/12/03 10:21:37;;;;;;;3.60;2.60;;;;;;;;;;6276707;22;20208;-92
2021/12/03 10:24:34;;;;;;;2.87;2.50;;;;;;;;;;6277206;22;20180;-92
2021/12/03 10:30:16;;;;;;;3.00;2.70;;;;;;;;;;6265843;22;20188;-92
2021/12/03 10:33:01;;;;;;;4.03;2.63;;;;;;;;;;6277330;22;20168;-91
2021/12/03 10:38:29;;;;;;;4.20;2.50;;;;;;;;;;6224995;22;20199;-92
2021/12/03 10:46:44;;;;;;;2.87;2.40;;;;;;;;;;6275953;22;20167;-91
2021/12/03 10:49:30;;;;;;;3.37;2.67;;;;;;;;;;6276627;22;20659;-91
2021/12/03 10:52:09;;;;;;;4.20;2.73;;;;;;;;;;6277379;22;20181;-91
2021/12/03 11:00:46;;;;;;;5.30;2.13;;;;;;;;;;6153395;23;20195;-91
2021/12/03 11:31:36;;;;;;;1.97;1.77;;;;;;;;;;6276466;22;20160;-92
2021/12/03 11:43:06;;;;;;;2.47;2.23;;;;;;;;;;6276250;22;20250;-91
2021/12/03 12:00:25;;;;;;;3.40;2.37;;;;;;;;;;6255094;22;20197;-91
2021/12/03 12:24:09;;;;;;;2.67;2.33;;;;;;;;;;6274287;22;20172;-91
2021/12/03 14:37:57;;;;;;;1.07;1.07;;;;;;;;;;6275555;22;20173;-91
2021/12/03 14:40:37;;;;;;;2.37;1.30;;;;;;;;;;6276061;22;20216;-92
2021/12/03 14:46:08;;;;;;;1.63;1.40;;;;;;;;;;6278416;22;20248;-92
2021/12/03 14:49:06;;;;;;;1.30;1.20;;;;;;;;;;6284225;22;20197;-91
2021/12/03 14:51:47;;;;;;;1.53;1.20;;;;;;;;;;6287369;22;20173;-92
2021/12/03 14:54:31;;;;;;;1.27;1.17;;;;;;;;;;6291070;22;20176;-91
2021/12/03 14:57:09;;;;;;;1.60;1.50;;;;;;;;;;6290201;22;20188;-91
2021/12/03 14:59:39;;;;;;;1.73;1.30;;;;;;;;;;6289174;22;20196;-91
2021/12/03 15:02:18;;;;;;;2.67;1.50;;;;;;;;;;6288003;22;20168;-92
2021/12/03 15:07:44;;;;;;;1.97;1.33;;;;;;;;;;6252284;22;20173;-91
2021/12/03 15:10:19;;;;;;;2.97;0.87;;;;;;;;;;6276960;22;20172;-92
2021/12/03 15:21:38;;;;;;;1.30;1.10;;;;;;;;;;6255657;22;20208;-91
2021/12/03 15:29:55;;;;;;;1.77;1.10;;;;;;;;;;6214806;22;20188;-92
2021/12/03 15:32:30;;;;;;;1.87;1.30;;;;;;;;;;6276909;22;20177;-92
2021/12/03 15:35:05;;;;;;;2.73;1.67;;;;;;;;;;6276811;22;20550;-92
2021/12/03 16:08:39;;;;;;;2.67;1.90;;;;;;;;;;6274402;22;20192;-91
2021/12/03 16:11:13;;;;;;;2.93;1.57;;;;;;;;;;6276119;22;20226;-92
2021/12/03 16:13:56;;;;;;;2.43;1.70;;;;;;;;;;6276432;22;20248;-91
2021/12/03 16:44:45;;;;;;;2.77;2.20;;;;;;;;;;6276369;22;20219;-93
2021/12/03 16:47:24;;;;;;;2.17;1.60;;;;;;;;;;6276237;22;20170;-93
2021/12/03 16:52:37;;;;;;;2.77;2.10;;;;;;;;;;6214399;22;20483;-93
2021/12/03 16:55:05;;;;;;;3.03;2.07;;;;;;;;;;6276449;22;20184;-93
2021/12/03 16:57:34;;;;;;;2.30;1.80;;;;;;;;;;6275698;22;20230;-93
2021/12/03 17:00:15;;;;;;;2.13;1.77;;;;;;;;;;6276044;22;20216;-93
2021/12/03 17:02:47;;;;;;;3.03;2.40;;;;;;;;;;6276346;22;20184;-93
2021/12/03 17:05:28;;;;;;;2.37;2.10;;;;;;;;;;6275778;22;20176;-93
2021/12/03 17:08:25;;;;;;;2.90;2.47;;;;;;;;;;6271432;22;20595;-93
2021/12/03 17:11:34;;;;;;;2.73;2.43;;;;;;;;;;6271564;22;20176;-93
2021/12/03 17:14:07;;;;;;;4.20;2.90;;;;;;;;;;6273067;22;20239;-94
2021/12/03 17:30:51;;;;;;;3.80;3.20;;;;;;;;;;6273542;22;20149;-94
2021/12/03 17:44:54;;;;;;;8.50;5.07;;;;;;;;;;6273079;22;20207;-94
2021/12/03 17:47:46;;;;;;;3.60;3.20;;;;;;;;;;6273406;22;20176;-91
2021/12/03 17:50:36;;;;;;;3.37;2.23;;;;;;;;;;6273020;22;20496;-94
2021/12/03 17:53:26;;;;;;;4.53;2.90;;;;;;;;;;6272058;22;20171;-94
2021/12/03 17:56:09;;;;;;;3.93;2.57;;;;;;;;;;6271646;22;20211;-93
2021/12/03 17:58:38;;;;;;;4.53;3.00;;;;;;;;;;6271998;22;20192;-94
2021/12/03 18:01:11;;;;;;;6.10;3.60;;;;;;;;;;6272856;22;20188;-93
2021/12/03 18:03:45;;;;;;;6.73;4.50;;;;;;;;;;6272150;22;20175;-93
2021/12/03 18:06:44;;;;;;;5.90;3.77;;;;;;;;;;6271589;22;20226;-93
2021/12/03 18:09:29;;;;;;;4.60;3.00;;;;;;;;;;6271361;22;20228;-94
2021/12/03 18:12:28;;;;;;;4.63;2.63;;;;;;;;;;6272072;22;20179;-93
2021/12/03 18:18:25;;;;;;;3.17;2.60;;;;;;;;;;6270966;22;20155;-93
2021/12/03 18:46:14;;;;;;;2.80;2.50;;;;;;;;;;6230976;22;20180;-94
2021/12/03 18:51:43;;;;;;;4.97;3.53;;;;;;;;;;6278617;22;20251;-92
2021/12/03 18:57:02;;;;;;;6.17;3.17;;;;;;;;;;6283671;22;20183;-94
2021/12/03 18:59:38;;;;;;;4.37;3.00;;;;;;;;;;6277594;22;20646;-93
2021/12/03 19:02:09;;;;;;;4.60;2.77;;;;;;;;;;6281378;22;20188;-91
2021/12/03 19:04:46;;;;;;;5.27;3.40;;;;;;;;;;6283610;22;20177;-94
2021/12/03 19:07:19;;;;;;;4.93;2.80;;;;;;;;;;6276997;22;20176;-94
2021/12/03 19:09:49;;;;;;;4.20;2.80;;;;;;;;;;6280806;22;20196;-94
2021/12/03 19:12:24;;;;;;;5.70;3.10;;;;;;;;;;6276333;22;20180;-92
2021/12/03 19:14:55;;;;;;;3.97;3.00;;;;;;;;;;6279341;22;20179;-94
2021/12/03 19:17:25;;;;;;;5.00;3.13;;;;;;;;;;6276313;22;20175;-94
2021/12/03 19:19:57;;;;;;;6.00;4.00;;;;;;;;;;6277042;22;20200;-93
2021/12/03 19:22:27;;;;;;;6.73;4.77;;;;;;;;;;6277688;22;20172;-94
2021/12/03 19:24:57;;;;;;;5.97;3.23;;;;;;;;;;6274935;22;20176;-94
2021/12/03 19:27:45;;;;;;;5.17;4.00;;;;;;;;;;6274141;22;20173;-94
2021/12/03 19:30:15;;;;;;;3.73;2.80;;;;;;;;;;6274112;22;20173;-94
2021/12/03 19:32:42;;;;;;;4.40;2.97;;;;;;;;;;6273838;22;20181;-94
2021/12/03 19:35:10;;;;;;;4.27;2.73;;;;;;;;;;6273380;22;20179;-93
2021/12/03 19:37:38;;;;;;;5.40;3.73;;;;;;;;;;6274248;22;20184;-94
2021/12/03 19:40:09;;;;;;;8.83;5.07;;;;;;;;;;6273527;22;20206;-94
2021/12/03 19:42:39;;;;;;;6.67;5.07;;;;;;;;;;6246713;22;20177;-94
2021/12/03 19:45:12;;;;;;;10.23;5.17;;;;;;;;;;6273955;22;20635;-94
2021/12/03 19:47:50;;;;;;;5.77;4.13;;;;;;;;;;6273651;22;20211;-94
2021/12/03 19:50:21;;;;;;;7.77;4.30;;;;;;;;;;6273857;22;20169;-94
2021/12/03 19:52:55;;;;;;;5.70;4.20;;;;;;;;;;6273968;22;20242;-94
2021/12/03 19:55:26;;;;;;;3.47;3.17;;;;;;;;;;6273787;22;20798;-94
2021/12/03 19:57:54;;;;;;;4.07;3.53;;;;;;;;;;6272810;22;20705;-94
2021/12/03 20:00:24;;;;;;;5.00;3.77;;;;;;;;;;6273388;22;20193;-93
2021/12/03 20:02:52;;;;;;;7.13;4.30;;;;;;;;;;6274066;22;20200;-94
2021/12/03 20:05:19;;;;;;;3.80;3.40;;;;;;;;;;6273996;22;20184;-94
2021/12/03 20:07:47;;;;;;;6.03;4.20;;;;;;;;;;6272225;22;20176;-94
2021/12/03 20:10:20;;;;;;;5.77;3.53;;;;;;;;;;6274065;22;20178;-93
2021/12/03 20:12:54;;;;;;;4.23;3.37;;;;;;;;;;6275913;22;20228;-92
2021/12/03 20:15:27;;;;;;;6.97;4.17;;;;;;;;;;6276498;22;20210;-94
2021/12/03 20:17:57;;;;;;;4.27;3.80;;;;;;;;;;6274963;22;20183;-94
2021/12/03 20:20:25;;;;;;;7.33;5.90;;;;;;;;;;6273385;22;20239;-93
2021/12/03 20:22:57;;;;;;;5.87;4.13;;;;;;;;;;6274282;22;20248;-93
2021/12/03 20:25:54;;;;;;;8.27;4.87;;;;;;;;;;6273672;22;20169;-94
2021/12/03 20:28:25;;;;;;;9.27;5.07;;;;;;;;;;6273923;22;20203;-94
2021/12/03 20:31:10;;;;;;;5.47;3.97;;;;;;;;;;6273737;22;20179;-94
2021/12/03 20:34:03;;;;;;;9.50;5.10;;;;;;;;;;6279461;22;20173;-94
2021/12/03 20:36:46;;;;;;;5.67;4.20;;;;;;;;;;6278315;22;20238;-94
2021/12/03 20:39:17;;;;;;;11.70;7.13;;;;;;;;;;6278672;22;20193;-93
2021/12/03 20:41:51;;;;;;;9.40;5.07;;;;;;;;;;6281066;22;20248;-95
2021/12/03 20:44:48;;;;;;;15.50;9.70;;;;;;;;;;6279737;22;20179;-94
2021/12/03 20:50:21;;;;;;;14.03;7.10;;;;;;;;;;6272348;22;20195;-93
2021/12/03 20:53:03;;;;;;;11.60;5.83;;;;;;;;;;6273434;22;20169;-93
2021/12/03 21:09:19;;;;;;;17.30;9.30;;;;;;;;;;6274579;22;20242;-94
2021/12/03 21:11:48;;;;;;;14.07;6.50;;;;;;;;;;6275592;22;20419;-93
2021/12/03 21:14:19;;;;;;;16.67;8.13;;;;;;;;;;6276307;22;20176;-94
2021/12/03 21:16:58;;;;;;;13.63;7.00;;;;;;;;;;6275979;22;20192;-94
2021/12/03 21:22:15;;;;;;;10.77;6.30;;;;;;;;;;6274796;22;20224;-94
2021/12/03 21:24:44;;;;;;;11.23;7.53;;;;;;;;;;6275237;22;20776;-94
2021/12/03 21:27:15;;;;;;;10.20;6.77;;;;;;;;;;6274972;22;20374;-93
2021/12/03 21:29:59;;;;;;;15.47;7.50;;;;;;;;;;6275231;22;20197;-93
2021/12/03 21:32:39;;;;;;;9.17;6.30;;;;;;;;;;6275425;22;20164;-93
2021/12/03 21:38:20;;;;;;;11.03;5.20;;;;;;;;;;6275138;22;20164;-94
2021/12/03 21:40:58;;;;;;;7.60;5.07;;;;;;;;;;6275120;22;20188;-93
2021/12/03 21:43:28;;;;;;;13.07;7.97;;;;;;;;;;6272146;22;20251;-94
2021/12/03 21:45:56;;;;;;;12.10;7.73;;;;;;;;;;6277926;22;20207;-94